Time;durP1;ratioP1;P1;durP2;ratioP2;P2;SDS_P1;SDS_P2;PMS_P1;PMS_P2;Temp;Humidity;BMP_temperature;BMP_pressure;BME280_temperature;BME280_humidity;BME280_pressure;Samples;Min_cycle;Max_cycle;Signal;HPM_P1;HPM_P2
2022/12/20 00:01:20;;;;;;;6.45;3.97;;;-0.10;99.90;;;;;;5044546;28;20431;-65
2022/12/20 00:03:52;;;;;;;9.75;2.85;;;-0.10;99.90;;;;;;5045228;28;20447;-66
2022/12/20 00:06:20;;;;;;;11.00;4.27;;;-0.10;99.90;;;;;;5043257;28;21073;-66
2022/12/20 00:08:53;;;;;;;4.72;2.67;;;-0.10;99.90;;;;;;5040287;28;20430;-66
2022/12/20 00:11:24;;;;;;;4.80;2.45;;;-0.10;99.90;;;;;;5046508;28;20484;-66
2022/12/20 00:13:51;;;;;;;4.05;3.13;;;-0.10;99.90;;;;;;5039992;28;20792;-66
2022/12/20 00:16:21;;;;;;;4.97;3.60;;;-0.10;99.90;;;;;;5045316;28;20518;-66
2022/12/20 00:18:51;;;;;;;3.72;2.80;;;-0.10;99.90;;;;;;5048055;28;20430;-66
2022/12/20 00:21:18;;;;;;;3.97;2.45;;;-0.10;99.90;;;;;;5048405;28;20436;-66
2022/12/20 00:23:44;;;;;;;4.15;2.90;;;-0.10;99.90;;;;;;5046360;28;20466;-66
2022/12/20 00:26:14;;;;;;;7.38;3.13;;;0.00;99.90;;;;;;5043613;28;20468;-67
2022/12/20 00:28:44;;;;;;;4.85;3.17;;;0.00;99.90;;;;;;5043762;28;20455;-66
2022/12/20 00:31:13;;;;;;;7.80;3.70;;;0.00;99.90;;;;;;5049963;28;20466;-67
2022/12/20 00:33:43;;;;;;;12.67;3.97;;;0.00;99.90;;;;;;5047396;28;20425;-67
2022/12/20 00:36:10;;;;;;;4.05;2.85;;;-0.10;99.90;;;;;;5038959;28;20429;-67
2022/12/20 00:38:39;;;;;;;5.20;3.97;;;0.00;99.90;;;;;;5040744;28;20464;-67
2022/12/20 00:41:14;;;;;;;4.93;3.63;;;0.00;99.90;;;;;;5044214;28;20429;-67
2022/12/20 00:43:41;;;;;;;5.68;3.83;;;0.00;99.90;;;;;;5044147;28;20441;-67
2022/12/20 00:46:10;;;;;;;7.38;3.22;;;0.10;99.90;;;;;;5043409;28;20429;-67
2022/12/20 00:48:37;;;;;;;8.75;3.63;;;0.10;99.90;;;;;;5031102;28;20452;-67
2022/12/20 00:51:10;;;;;;;10.05;3.92;;;0.10;99.90;;;;;;5043918;28;20436;-66
2022/12/20 00:53:37;;;;;;;8.65;3.13;;;0.00;99.90;;;;;;5048419;28;20432;-66
2022/12/20 00:56:05;;;;;;;4.35;3.35;;;0.00;99.90;;;;;;5045379;28;20940;-66
2022/12/20 00:58:33;;;;;;;9.50;3.90;;;0.00;99.90;;;;;;5044375;28;20448;-66
2022/12/20 01:01:00;;;;;;;8.32;4.05;;;0.00;99.90;;;;;;5043759;28;20847;-66
2022/12/20 01:03:27;;;;;;;6.30;2.97;;;0.00;99.90;;;;;;5044826;28;20429;-66
2022/12/20 01:05:57;;;;;;;3.13;2.90;;;0.00;99.90;;;;;;5045441;28;20511;-65
2022/12/20 01:08:26;;;;;;;6.20;3.83;;;0.00;99.90;;;;;;5050400;28;20485;-65
2022/12/20 01:11:01;;;;;;;6.68;3.03;;;0.00;99.90;;;;;;5042636;28;20441;-65
2022/12/20 01:13:28;;;;;;;4.20;2.42;;;0.00;99.90;;;;;;5041188;28;20814;-65
2022/12/20 01:15:55;;;;;;;6.90;4.15;;;0.00;99.90;;;;;;5037430;28;20429;-65
2022/12/20 01:18:24;;;;;;;6.35;3.67;;;0.00;99.90;;;;;;5045167;28;20460;-66
2022/12/20 01:21:00;;;;;;;5.25;4.03;;;0.00;99.90;;;;;;5043788;28;20934;-67
2022/12/20 01:23:27;;;;;;;3.07;2.83;;;0.00;99.90;;;;;;5046334;28;20891;-66
2022/12/20 01:25:56;;;;;;;5.90;3.45;;;0.00;99.90;;;;;;5039120;28;20443;-65
2022/12/20 01:28:22;;;;;;;4.82;2.20;;;0.00;99.90;;;;;;5041355;28;20441;-65
2022/12/20 01:30:49;;;;;;;4.07;3.60;;;0.00;99.90;;;;;;5044488;28;20425;-65
2022/12/20 01:33:16;;;;;;;5.10;3.28;;;0.00;99.90;;;;;;5045600;28;20431;-65
2022/12/20 01:35:53;;;;;;;6.03;2.60;;;0.10;99.90;;;;;;5045366;28;20942;-65
2022/12/20 01:38:19;;;;;;;5.55;2.78;;;0.10;99.90;;;;;;5023096;28;20485;-66
2022/12/20 01:40:46;;;;;;;2.13;2.00;;;0.10;99.90;;;;;;5054804;28;20437;-66
2022/12/20 01:43:16;;;;;;;2.50;2.30;;;0.00;99.90;;;;;;5049102;28;20423;-66
2022/12/20 01:45:42;;;;;;;7.77;2.53;;;0.00;99.90;;;;;;5046330;28;20480;-66
2022/12/20 01:48:10;;;;;;;4.60;2.10;;;-0.10;99.90;;;;;;5045892;28;21040;-66
2022/12/20 01:50:37;;;;;;;5.72;3.22;;;-0.10;99.90;;;;;;5021247;28;20448;-66
2022/12/20 01:53:06;;;;;;;12.77;2.95;;;-0.10;99.90;;;;;;5046375;28;20465;-66
2022/12/20 01:55:34;;;;;;;6.03;4.10;;;-0.10;99.90;;;;;;5040750;28;20915;-66
2022/12/20 01:58:11;;;;;;;3.47;2.88;;;-0.10;99.90;;;;;;5036265;28;20424;-65
2022/12/20 02:00:38;;;;;;;7.40;3.47;;;0.00;99.90;;;;;;5049115;28;20484;-66
2022/12/20 02:03:08;;;;;;;6.13;3.38;;;0.00;99.90;;;;;;5044337;28;20531;-66
2022/12/20 02:05:38;;;;;;;2.63;2.42;;;0.00;99.90;;;;;;5028450;28;20444;-65
2022/12/20 02:08:09;;;;;;;8.13;3.63;;;0.00;99.90;;;;;;5046979;28;20431;-65
2022/12/20 02:11:01;;;;;;;4.03;2.38;;;0.00;99.90;;;;;;5039710;28;20457;-65
2022/12/20 02:13:37;;;;;;;4.50;3.00;;;0.00;99.90;;;;;;5036647;28;20998;-65
2022/12/20 02:16:04;;;;;;;3.95;2.45;;;0.00;99.90;;;;;;5045198;28;20508;-66
2022/12/20 02:18:40;;;;;;;2.97;2.33;;;0.00;99.90;;;;;;5040831;28;20429;-65
2022/12/20 02:21:17;;;;;;;4.33;2.60;;;0.00;99.90;;;;;;5052099;28;20508;-65
2022/12/20 02:23:55;;;;;;;5.43;3.22;;;-0.10;99.90;;;;;;5041246;28;20803;-66
2022/12/20 02:26:51;;;;;;;2.05;1.88;;;-0.10;99.90;;;;;;5054547;28;21136;-66
2022/12/20 02:29:23;;;;;;;3.13;2.13;;;-0.20;99.90;;;;;;5037057;28;20507;-66
2022/12/20 02:32:15;;;;;;;6.43;3.10;;;-0.20;99.90;;;;;;5045845;28;20440;-66
2022/12/20 02:34:46;;;;;;;10.90;4.28;;;-0.20;99.90;;;;;;5045809;28;20953;-66
2022/12/20 02:37:12;;;;;;;4.75;2.22;;;-0.10;99.90;;;;;;5049688;28;20422;-66
2022/12/20 02:39:41;;;;;;;2.60;2.33;;;0.00;99.90;;;;;;5047924;28;20922;-66
2022/12/20 02:42:19;;;;;;;5.53;3.70;;;0.00;99.90;;;;;;5044791;28;20979;-66
2022/12/20 02:48:18;;;;;;;5.55;2.63;;;0.10;99.90;;;;;;5045796;28;20430;-66
2022/12/20 02:50:51;;;;;;;3.03;2.47;;;0.10;99.90;;;;;;5016088;28;20517;-66
2022/12/20 02:53:19;;;;;;;6.43;2.53;;;0.00;99.90;;;;;;4993406;28;20465;-66
2022/12/20 02:56:06;;;;;;;9.03;3.67;;;0.00;99.90;;;;;;5010807;28;20518;-66
2022/12/20 02:58:57;;;;;;;4.35;3.15;;;0.00;99.90;;;;;;5005835;28;20433;-66
2022/12/20 03:01:31;;;;;;;2.80;1.90;;;0.00;99.90;;;;;;5007524;28;21162;-66
2022/12/20 03:04:01;;;;;;;3.47;2.55;;;0.00;99.90;;;;;;5010696;28;20923;-66
2022/12/20 03:06:29;;;;;;;7.82;3.38;;;0.00;99.90;;;;;;4993379;28;20786;-66
2022/12/20 03:08:56;;;;;;;2.95;2.38;;;0.00;99.90;;;;;;5003188;28;20475;-66
2022/12/20 03:11:23;;;;;;;5.25;3.20;;;0.10;99.90;;;;;;5000228;28;20525;-66
2022/12/20 03:13:50;;;;;;;3.67;2.90;;;0.10;99.90;;;;;;5011935;28;20464;-66
2022/12/20 03:16:16;;;;;;;5.68;3.05;;;0.20;99.90;;;;;;4994978;28;20503;-66
2022/12/20 03:18:44;;;;;;;4.25;2.80;;;0.20;99.90;;;;;;5005293;28;20538;-65
2022/12/20 03:21:11;;;;;;;4.40;2.95;;;0.20;99.90;;;;;;5024566;28;20445;-66
2022/12/20 03:23:38;;;;;;;5.18;3.22;;;0.30;99.90;;;;;;5064430;28;20520;-66
2022/12/20 03:26:07;;;;;;;2.95;2.75;;;0.30;99.90;;;;;;5042752;28;20500;-66
2022/12/20 03:28:34;;;;;;;6.65;2.85;;;0.40;99.90;;;;;;5063927;28;20424;-66
2022/12/20 03:31:01;;;;;;;6.57;3.55;;;0.40;99.90;;;;;;5056875;28;20425;-66
2022/12/20 03:33:28;;;;;;;4.97;3.13;;;0.40;99.90;;;;;;5047853;28;20926;-66
2022/12/20 03:35:54;;;;;;;5.45;2.50;;;0.40;99.90;;;;;;5054835;28;20918;-66
2022/12/20 03:38:21;;;;;;;3.23;2.57;;;0.40;99.90;;;;;;5030811;28;20426;-66
2022/12/20 03:40:48;;;;;;;5.13;2.88;;;0.40;99.90;;;;;;5048275;28;20493;-66
2022/12/20 03:43:14;;;;;;;7.40;3.55;;;0.40;99.90;;;;;;5054682;28;20427;-66
2022/12/20 03:45:41;;;;;;;6.47;2.50;;;0.40;99.90;;;;;;5056033;28;20458;-66
2022/12/20 03:48:08;;;;;;;3.20;2.65;;;0.40;99.90;;;;;;5050466;28;20429;-66
2022/12/20 03:50:36;;;;;;;5.20;2.88;;;0.40;99.90;;;;;;5048243;28;20433;-66
2022/12/20 03:53:05;;;;;;;4.47;3.67;;;0.40;99.90;;;;;;5052128;28;20516;-66
2022/12/20 03:55:45;;;;;;;6.00;2.88;;;0.40;99.90;;;;;;5046490;28;20433;-66
2022/12/20 03:58:12;;;;;;;4.38;3.25;;;0.40;99.90;;;;;;5046819;28;20499;-66
2022/12/20 04:00:39;;;;;;;4.00;2.75;;;0.40;99.90;;;;;;5041305;28;20427;-66
2022/12/20 04:03:05;;;;;;;4.57;2.73;;;0.30;99.90;;;;;;5040026;28;20505;-66
2022/12/20 04:05:32;;;;;;;4.13;2.45;;;0.40;99.90;;;;;;5031855;28;20447;-66
2022/12/20 04:07:59;;;;;;;5.38;2.60;;;0.30;99.90;;;;;;5046448;28;20587;-66
2022/12/20 04:10:26;;;;;;;4.40;3.00;;;0.30;99.90;;;;;;5044683;28;20433;-66
2022/12/20 04:12:55;;;;;;;5.97;3.88;;;0.30;99.90;;;;;;5054165;28;20847;-66
2022/12/20 04:15:22;;;;;;;6.82;4.30;;;0.20;99.90;;;;;;5041137;28;20486;-66
2022/12/20 04:17:49;;;;;;;6.60;3.67;;;0.20;99.90;;;;;;5053757;28;20514;-66
2022/12/20 04:20:19;;;;;;;4.22;2.58;;;0.20;99.90;;;;;;5053977;28;20427;-66
2022/12/20 04:22:47;;;;;;;4.70;2.28;;;0.20;99.90;;;;;;5047065;28;20428;-66
2022/12/20 04:25:16;;;;;;;4.13;2.67;;;0.20;99.90;;;;;;5041100;28;20453;-66
2022/12/20 04:27:43;;;;;;;7.95;3.85;;;0.20;99.90;;;;;;5042349;28;20437;-66
2022/12/20 04:30:10;;;;;;;10.57;2.97;;;0.20;99.90;;;;;;5029055;28;20510;-66
2022/12/20 04:32:37;;;;;;;5.20;3.40;;;0.10;99.90;;;;;;5039394;28;20444;-66
2022/12/20 04:35:04;;;;;;;5.95;3.58;;;0.10;99.90;;;;;;5046400;28;20433;-66
2022/12/20 04:37:31;;;;;;;5.20;2.90;;;0.10;99.90;;;;;;5043537;28;20429;-66
2022/12/20 04:39:58;;;;;;;2.58;1.98;;;0.10;99.90;;;;;;5043267;28;20512;-66
2022/12/20 04:42:26;;;;;;;5.43;2.50;;;0.00;99.90;;;;;;5050763;28;20425;-66
2022/12/20 04:44:52;;;;;;;3.92;2.30;;;0.00;99.90;;;;;;5043699;28;20435;-66
2022/12/20 04:47:24;;;;;;;6.53;2.45;;;0.00;99.90;;;;;;5052003;28;20448;-66
2022/12/20 04:49:51;;;;;;;6.38;2.80;;;0.00;99.90;;;;;;5044195;28;20455;-66
2022/12/20 04:55:11;;;;;;;3.45;2.95;;;0.10;99.90;;;;;;5043359;28;20429;-66
2022/12/20 04:57:37;;;;;;;2.15;1.95;;;0.10;99.90;;;;;;5029893;28;20431;-66
2022/12/20 05:00:07;;;;;;;3.88;2.50;;;0.20;99.90;;;;;;5033805;28;20430;-66
2022/12/20 05:02:34;;;;;;;3.85;2.75;;;0.30;99.90;;;;;;5038419;28;20439;-66
2022/12/20 05:05:01;;;;;;;5.20;3.40;;;0.30;99.90;;;;;;5042831;28;20522;-66
2022/12/20 05:07:28;;;;;;;4.10;2.70;;;0.30;99.90;;;;;;5048497;28;20484;-66
2022/12/20 05:09:55;;;;;;;3.50;3.20;;;0.40;99.90;;;;;;5038524;28;20439;-66
2022/12/20 05:12:22;;;;;;;4.45;3.45;;;0.40;99.90;;;;;;5048778;28;20436;-66
2022/12/20 05:14:48;;;;;;;2.85;2.60;;;0.40;99.90;;;;;;5034629;28;20439;-66
2022/12/20 05:17:15;;;;;;;5.78;2.75;;;0.40;99.90;;;;;;5045974;28;20508;-66
2022/12/20 05:19:42;;;;;;;3.78;2.33;;;0.40;99.90;;;;;;5042218;28;20433;-66
2022/12/20 05:27:41;;;;;;;7.78;4.07;;;0.50;99.90;;;;;;5050135;28;20436;-66
2022/12/20 05:30:08;;;;;;;8.95;3.10;;;0.60;99.90;;;;;;5041340;28;20438;-66
2022/12/20 05:32:35;;;;;;;3.55;3.13;;;0.70;99.90;;;;;;5043675;28;20865;-66
2022/12/20 05:35:02;;;;;;;7.47;3.20;;;0.60;99.90;;;;;;5046637;28;20433;-66
2022/12/20 05:37:29;;;;;;;2.90;2.33;;;0.60;99.90;;;;;;5047924;28;20464;-66
2022/12/20 05:39:56;;;;;;;5.00;2.70;;;0.60;99.90;;;;;;5040556;28;20462;-66
2022/12/20 05:42:23;;;;;;;4.07;3.50;;;0.60;99.90;;;;;;5045403;28;20428;-66
2022/12/20 05:44:50;;;;;;;7.97;3.88;;;0.60;99.90;;;;;;5046450;28;20429;-66
2022/12/20 05:47:17;;;;;;;5.78;3.38;;;0.50;99.90;;;;;;5054237;28;20432;-66
2022/12/20 05:49:43;;;;;;;3.45;3.10;;;0.50;99.90;;;;;;5038372;28;20437;-66
2022/12/20 05:52:10;;;;;;;10.70;3.30;;;0.50;99.90;;;;;;5047829;28;20429;-65
2022/12/20 05:54:37;;;;;;;8.87;4.60;;;0.50;99.90;;;;;;5043116;28;20423;-65
2022/12/20 05:57:03;;;;;;;4.65;3.30;;;0.50;99.90;;;;;;5052490;28;20433;-66
2022/12/20 05:59:30;;;;;;;5.43;2.93;;;0.50;99.90;;;;;;5053330;28;20876;-65
2022/12/20 06:01:57;;;;;;;7.63;3.45;;;0.50;99.90;;;;;;5054209;28;20435;-66
2022/12/20 06:04:24;;;;;;;4.25;2.63;;;0.50;99.90;;;;;;5052404;28;20827;-65
2022/12/20 06:06:51;;;;;;;7.75;2.88;;;0.50;99.90;;;;;;5046325;28;20431;-65
2022/12/20 06:09:20;;;;;;;4.27;3.73;;;0.50;99.90;;;;;;5051260;28;20764;-65
2022/12/20 06:11:46;;;;;;;6.13;3.50;;;0.50;99.90;;;;;;5049825;28;20450;-65
2022/12/20 06:14:13;;;;;;;6.32;4.00;;;0.50;99.90;;;;;;5042836;28;20438;-66
2022/12/20 06:16:40;;;;;;;5.82;2.58;;;0.50;99.90;;;;;;5038408;28;20429;-65
2022/12/20 06:19:07;;;;;;;2.40;2.17;;;0.50;99.90;;;;;;5063279;28;20459;-66
2022/12/20 06:21:34;;;;;;;8.15;2.17;;;0.50;99.90;;;;;;5031587;28;20417;-66
2022/12/20 06:24:01;;;;;;;9.00;2.50;;;0.50;99.90;;;;;;5020876;28;20512;-65
2022/12/20 06:26:34;;;;;;;3.70;2.37;;;0.50;99.90;;;;;;5043472;28;20441;-65
2022/12/20 06:29:05;;;;;;;2.83;2.63;;;0.50;99.90;;;;;;5054613;28;20518;-65
2022/12/20 06:31:32;;;;;;;2.92;2.45;;;0.40;99.90;;;;;;5049919;28;20429;-66
2022/12/20 06:33:59;;;;;;;4.93;3.93;;;0.50;99.90;;;;;;5042878;28;20433;-66
2022/12/20 06:36:27;;;;;;;4.05;2.92;;;0.50;99.90;;;;;;5031984;28;20438;-66
2022/12/20 06:38:54;;;;;;;6.15;3.38;;;0.50;99.90;;;;;;5042794;28;20429;-66
2022/12/20 06:41:21;;;;;;;4.28;2.90;;;0.60;99.90;;;;;;5040142;28;20423;-66
2022/12/20 06:43:47;;;;;;;3.97;3.65;;;0.60;99.90;;;;;;5040802;28;20439;-66
2022/12/20 06:46:14;;;;;;;6.32;3.40;;;0.70;99.90;;;;;;5045659;28;20443;-66
2022/12/20 06:48:41;;;;;;;6.20;2.88;;;0.60;99.90;;;;;;5044711;28;20530;-66
2022/12/20 06:51:10;;;;;;;5.57;3.00;;;0.60;99.90;;;;;;5045734;28;20436;-66
2022/12/20 06:53:37;;;;;;;3.83;2.63;;;0.70;99.90;;;;;;5053269;28;20926;-66
2022/12/20 06:56:04;;;;;;;5.35;2.40;;;0.80;99.90;;;;;;5048305;28;20937;-66
2022/12/20 06:58:31;;;;;;;5.75;3.35;;;0.80;99.90;;;;;;5054149;28;20975;-66
2022/12/20 07:00:58;;;;;;;7.32;3.78;;;0.90;99.90;;;;;;5046935;28;20425;-66
2022/12/20 07:03:28;;;;;;;4.17;3.13;;;0.90;99.90;;;;;;5052843;28;20423;-66
2022/12/20 07:05:55;;;;;;;3.65;3.25;;;1.00;99.90;;;;;;5047904;28;20436;-66
2022/12/20 07:08:23;;;;;;;7.18;3.90;;;1.00;99.90;;;;;;5046263;28;20435;-66
2022/12/20 07:10:51;;;;;;;5.47;2.53;;;1.00;99.90;;;;;;5046442;28;20429;-66
2022/12/20 07:13:19;;;;;;;7.25;3.42;;;1.00;99.90;;;;;;5045469;28;20449;-66
2022/12/20 07:15:45;;;;;;;3.40;3.07;;;1.00;99.90;;;;;;5049439;28;20439;-66
2022/12/20 07:18:12;;;;;;;5.03;2.45;;;1.00;99.90;;;;;;5045240;28;20474;-66
2022/12/20 07:20:39;;;;;;;3.38;2.25;;;1.00;99.90;;;;;;5042542;28;21006;-66
2022/12/20 07:23:06;;;;;;;4.90;3.20;;;1.00;99.90;;;;;;5039175;28;20431;-66
2022/12/20 07:25:32;;;;;;;3.08;2.42;;;1.00;99.90;;;;;;5042513;28;20490;-65
2022/12/20 07:27:59;;;;;;;6.35;3.25;;;1.00;99.90;;;;;;5048668;28;20457;-65
2022/12/20 07:30:26;;;;;;;3.22;2.28;;;1.00;99.90;;;;;;5050093;28;20908;-67
2022/12/20 07:32:53;;;;;;;5.22;3.08;;;1.00;99.90;;;;;;5047857;28;20432;-67
2022/12/20 07:35:20;;;;;;;4.05;2.38;;;0.90;99.90;;;;;;5039529;28;20429;-66
2022/12/20 07:37:46;;;;;;;2.90;2.60;;;0.90;99.90;;;;;;5039650;28;20426;-66
2022/12/20 07:40:15;;;;;;;3.15;2.85;;;0.90;99.90;;;;;;5044230;28;20436;-67
2022/12/20 07:42:41;;;;;;;4.53;3.35;;;0.90;99.90;;;;;;5053270;28;20973;-66
2022/12/20 07:45:14;;;;;;;3.85;2.80;;;0.90;99.90;;;;;;5048716;28;20429;-66
2022/12/20 07:47:42;;;;;;;7.65;2.45;;;0.90;99.90;;;;;;5036354;28;20430;-66
2022/12/20 07:50:10;;;;;;;5.10;2.95;;;1.00;99.90;;;;;;5044073;28;20433;-66
2022/12/20 07:52:40;;;;;;;6.35;3.88;;;1.00;99.90;;;;;;5032780;28;20433;-66
2022/12/20 07:55:08;;;;;;;8.80;3.13;;;1.00;99.90;;;;;;5051756;28;20530;-66
2022/12/20 07:57:47;;;;;;;5.70;3.65;;;1.00;99.90;;;;;;5043846;28;20421;-66
2022/12/20 08:00:17;;;;;;;8.00;3.30;;;1.00;99.90;;;;;;5045668;28;20424;-67
2022/12/20 08:03:11;;;;;;;3.67;3.15;;;1.00;99.90;;;;;;5045262;28;20461;-67
2022/12/20 08:05:42;;;;;;;5.28;3.42;;;1.00;99.90;;;;;;5043445;28;20527;-67
2022/12/20 08:08:09;;;;;;;7.60;3.45;;;1.10;99.90;;;;;;5050084;28;20441;-67
2022/12/20 08:10:38;;;;;;;3.38;3.05;;;1.10;99.90;;;;;;5051510;28;20462;-66
2022/12/20 08:13:06;;;;;;;5.45;2.70;;;1.20;99.90;;;;;;5053303;28;20432;-66
2022/12/20 08:15:34;;;;;;;5.25;3.63;;;1.20;99.90;;;;;;5046659;28;20527;-66
2022/12/20 08:18:01;;;;;;;6.50;3.28;;;1.30;99.90;;;;;;5045460;28;20430;-66
2022/12/20 08:20:28;;;;;;;3.90;3.50;;;1.40;99.90;;;;;;5035300;28;20433;-73
2022/12/20 08:23:04;;;;;;;4.90;3.25;;;1.50;99.90;;;;;;5037553;28;20426;-67
2022/12/20 08:25:32;;;;;;;5.95;3.58;;;1.60;99.90;;;;;;5037162;28;20441;-67
2022/12/20 08:28:07;;;;;;;5.78;3.33;;;1.80;99.90;;;;;;5042137;28;20537;-66
2022/12/20 08:30:34;;;;;;;4.05;3.35;;;1.90;99.90;;;;;;5032608;28;20433;-66
2022/12/20 08:33:00;;;;;;;7.75;5.32;;;2.10;99.90;;;;;;5045576;28;20430;-66
2022/12/20 08:35:30;;;;;;;5.80;3.45;;;2.10;99.90;;;;;;5035130;28;20430;-65
2022/12/20 08:38:00;;;;;;;11.13;4.00;;;2.00;99.90;;;;;;5030177;28;20451;-66
2022/12/20 08:40:26;;;;;;;9.60;5.00;;;2.00;99.90;;;;;;5033838;28;21248;-66
2022/12/20 08:42:53;;;;;;;3.57;3.27;;;2.00;99.90;;;;;;5036663;28;20524;-66
2022/12/20 08:45:20;;;;;;;5.13;3.38;;;1.90;99.90;;;;;;5035913;28;20806;-66
2022/12/20 08:47:46;;;;;;;3.80;3.22;;;1.80;99.90;;;;;;5035179;28;21019;-66
2022/12/20 08:50:14;;;;;;;4.70;3.20;;;1.80;99.90;;;;;;5041477;28;20440;-66
2022/12/20 08:52:41;;;;;;;7.55;3.15;;;1.90;99.90;;;;;;5037021;28;20896;-66
2022/12/20 08:55:10;;;;;;;5.18;2.65;;;1.90;99.90;;;;;;5044379;28;20514;-66
2022/12/20 08:57:38;;;;;;;3.00;2.75;;;1.90;99.90;;;;;;5039581;28;20437;-66
2022/12/20 09:00:06;;;;;;;3.58;2.83;;;2.00;99.90;;;;;;5033763;28;20433;-65
2022/12/20 09:02:33;;;;;;;4.93;2.92;;;2.00;99.90;;;;;;5028198;28;20441;-66
2022/12/20 09:05:00;;;;;;;5.50;4.45;;;2.10;99.90;;;;;;5016022;28;20500;-66
2022/12/20 09:07:28;;;;;;;3.10;2.88;;;2.20;99.90;;;;;;5036210;28;20440;-66
2022/12/20 09:09:54;;;;;;;4.75;3.13;;;2.20;99.90;;;;;;5029693;28;20439;-66
2022/12/20 09:12:21;;;;;;;5.13;3.78;;;2.20;99.90;;;;;;5032222;28;20434;-66
2022/12/20 09:14:48;;;;;;;4.70;3.67;;;2.30;99.90;;;;;;5045080;28;20437;-66
2022/12/20 09:17:15;;;;;;;6.30;3.95;;;2.40;99.90;;;;;;5025440;28;20904;-67
2022/12/20 09:19:43;;;;;;;6.23;3.97;;;2.50;99.90;;;;;;5037893;28;20517;-67
2022/12/20 09:22:10;;;;;;;5.13;3.95;;;2.60;99.90;;;;;;5035320;28;20509;-67
2022/12/20 09:24:37;;;;;;;3.60;2.90;;;2.60;99.90;;;;;;5039904;28;20518;-66
2022/12/20 09:27:04;;;;;;;4.25;3.38;;;2.60;99.90;;;;;;5036730;28;20437;-66
2022/12/20 09:29:34;;;;;;;10.82;4.18;;;2.70;99.90;;;;;;5040302;28;20435;-68
2022/12/20 09:32:02;;;;;;;4.13;3.03;;;2.70;99.90;;;;;;5030723;28;20434;-67
2022/12/20 09:34:28;;;;;;;4.40;2.90;;;2.80;99.90;;;;;;5050706;28;20429;-67
2022/12/20 09:36:55;;;;;;;5.25;3.58;;;2.80;99.90;;;;;;5034932;28;20469;-67
2022/12/20 09:39:22;;;;;;;6.13;3.65;;;2.90;99.90;;;;;;5045444;28;21136;-67
2022/12/20 09:41:49;;;;;;;6.13;4.07;;;3.00;99.90;;;;;;5045203;28;20436;-67
2022/12/20 09:44:30;;;;;;;4.63;4.13;;;3.00;99.90;;;;;;5047521;28;20445;-68
2022/12/20 09:47:03;;;;;;;4.63;4.10;;;3.00;99.90;;;;;;5035913;28;20474;-67
2022/12/20 09:49:40;;;;;;;5.13;3.72;;;3.00;99.90;;;;;;5049773;28;20429;-67
2022/12/20 09:52:24;;;;;;;9.20;3.42;;;3.00;99.90;;;;;;5051763;28;20431;-67
2022/12/20 09:55:46;;;;;;;3.58;2.92;;;3.10;99.90;;;;;;5050455;28;20433;-67
2022/12/20 09:58:34;;;;;;;5.25;3.55;;;3.20;99.90;;;;;;4965879;28;20475;-67
2022/12/20 10:01:14;;;;;;;3.67;3.37;;;3.30;99.90;;;;;;4986927;28;20797;-67
2022/12/20 10:03:43;;;;;;;9.13;3.53;;;3.30;99.90;;;;;;4990182;28;21045;-68
2022/12/20 10:06:36;;;;;;;4.40;3.00;;;3.30;99.90;;;;;;4983258;28;20436;-68
2022/12/20 10:09:10;;;;;;;7.97;4.15;;;3.40;99.90;;;;;;4983451;28;20441;-68
2022/12/20 10:11:49;;;;;;;4.30;3.10;;;3.40;99.90;;;;;;4990456;28;21170;-67
2022/12/20 10:14:24;;;;;;;6.57;2.87;;;3.40;99.90;;;;;;4985821;28;21015;-68
2022/12/20 10:17:34;;;;;;;8.00;4.35;;;3.40;99.90;;;;;;4981058;28;20840;-68
2022/12/20 10:20:27;;;;;;;6.93;3.40;;;3.50;99.90;;;;;;4979739;28;20929;-68
2022/12/20 10:23:31;;;;;;;5.43;3.70;;;3.60;99.90;;;;;;4983829;28;21133;-68
2022/12/20 10:25:59;;;;;;;6.05;3.33;;;3.70;99.90;;;;;;4986199;28;20513;-68
2022/12/20 10:28:33;;;;;;;6.70;3.63;;;3.70;99.90;;;;;;5005411;28;20452;-68
2022/12/20 10:31:06;;;;;;;4.95;3.33;;;3.70;99.90;;;;;;5042772;28;21071;-68
2022/12/20 10:33:33;;;;;;;4.57;3.78;;;3.70;99.90;;;;;;5054287;28;20429;-68
2022/12/20 10:36:21;;;;;;;7.27;4.90;;;3.70;99.90;;;;;;5045000;28;20436;-68
2022/12/20 10:38:50;;;;;;;5.72;4.22;;;3.70;99.90;;;;;;5039388;28;20459;-68
2022/12/20 10:41:20;;;;;;;12.43;4.23;;;3.80;99.90;;;;;;5050049;28;20524;-68
2022/12/20 10:44:17;;;;;;;4.30;2.60;;;3.80;99.90;;;;;;5048653;28;20421;-68
2022/12/20 10:47:10;;;;;;;3.40;2.72;;;3.80;99.90;;;;;;5044070;28;20434;-68
2022/12/20 10:49:41;;;;;;;4.22;3.47;;;3.90;99.90;;;;;;5023731;28;20431;-68
2022/12/20 10:52:08;;;;;;;7.35;3.75;;;3.90;99.90;;;;;;5035733;28;20442;-68
2022/12/20 10:54:45;;;;;;;4.15;3.63;;;4.00;99.90;;;;;;5044738;28;20545;-69
2022/12/20 10:57:23;;;;;;;4.50;3.30;;;4.20;99.90;;;;;;5038922;28;20448;-68
2022/12/20 10:59:57;;;;;;;7.72;4.18;;;4.40;99.90;;;;;;5042436;28;20435;-70
2022/12/20 11:02:32;;;;;;;4.32;3.03;;;4.50;99.90;;;;;;5048589;28;20429;-68
2022/12/20 11:05:13;;;;;;;6.85;4.32;;;4.60;99.90;;;;;;5044985;28;20430;-73
2022/12/20 11:07:59;;;;;;;5.68;3.55;;;4.60;99.90;;;;;;5049588;28;20476;-69
2022/12/20 11:10:46;;;;;;;10.67;5.17;;;4.70;99.90;;;;;;5045781;28;21155;-68
2022/12/20 11:13:25;;;;;;;7.63;4.17;;;4.80;99.90;;;;;;5051043;28;20495;-67
2022/12/20 11:15:55;;;;;;;12.70;4.05;;;4.90;99.90;;;;;;5043987;28;20424;-67
2022/12/20 11:18:35;;;;;;;5.82;3.67;;;5.10;99.90;;;;;;5047223;28;20514;-67
2022/12/20 11:21:05;;;;;;;5.95;3.83;;;5.20;99.90;;;;;;5041353;28;20576;-63
2022/12/20 11:23:43;;;;;;;4.72;3.67;;;5.30;99.90;;;;;;5050652;28;20436;-68
2022/12/20 11:26:35;;;;;;;5.03;3.67;;;5.40;99.90;;;;;;5054414;28;20435;-68
2022/12/20 11:29:14;;;;;;;5.65;3.92;;;5.60;99.90;;;;;;5040275;28;21303;-68
2022/12/20 11:32:00;;;;;;;5.68;3.80;;;5.80;99.90;;;;;;5047209;28;20435;-68
2022/12/20 11:34:42;;;;;;;4.55;2.80;;;5.90;99.90;;;;;;5042357;28;20498;-68
2022/12/20 11:37:25;;;;;;;3.88;3.28;;;6.10;99.90;;;;;;5039443;28;20434;-68
2022/12/20 11:40:16;;;;;;;3.47;3.17;;;6.20;99.90;;;;;;5047516;28;20495;-68
2022/12/20 11:43:19;;;;;;;3.63;3.33;;;6.20;99.90;;;;;;5049451;28;20430;-68
2022/12/20 11:46:26;;;;;;;6.10;3.05;;;6.00;99.90;;;;;;5003761;28;20431;-68
2022/12/20 11:49:12;;;;;;;3.95;3.60;;;5.90;99.90;;;;;;4989739;28;20438;-69
2022/12/20 11:51:55;;;;;;;4.25;3.85;;;5.80;99.90;;;;;;5049537;28;20429;-69
2022/12/20 11:54:28;;;;;;;4.75;3.60;;;5.50;99.90;;;;;;5051627;28;20445;-69
2022/12/20 11:57:06;;;;;;;5.63;3.58;;;5.30;99.90;;;;;;5041976;28;20429;-69
2022/12/20 11:59:49;;;;;;;4.47;3.40;;;5.20;99.90;;;;;;5039908;28;20434;-69
2022/12/20 12:02:31;;;;;;;4.20;3.30;;;5.20;99.90;;;;;;5047541;28;20520;-69
2022/12/20 12:05:25;;;;;;;9.07;3.97;;;5.30;99.90;;;;;;5047720;28;20808;-69
2022/12/20 12:08:02;;;;;;;7.60;3.80;;;5.40;99.90;;;;;;5055127;28;20435;-69
2022/12/20 12:10:34;;;;;;;5.68;3.45;;;5.50;99.90;;;;;;5036068;28;20433;-69
2022/12/20 12:13:17;;;;;;;7.00;3.42;;;5.60;99.90;;;;;;5044242;28;20491;-69
2022/12/20 12:15:56;;;;;;;7.45;3.88;;;5.70;99.90;;;;;;5045788;28;20874;-69
2022/12/20 12:18:27;;;;;;;6.97;3.85;;;5.60;99.90;;;;;;5040456;28;20532;-68
2022/12/20 12:21:07;;;;;;;5.63;3.85;;;5.50;99.90;;;;;;5037559;28;20424;-68
2022/12/20 12:23:57;;;;;;;6.85;3.33;;;5.40;99.90;;;;;;5029377;28;20487;-66
2022/12/20 12:26:44;;;;;;;3.97;2.53;;;5.40;99.90;;;;;;5047001;28;20438;-67
2022/12/20 12:29:12;;;;;;;7.32;4.00;;;5.40;99.90;;;;;;5049357;28;20425;-67
2022/12/20 12:31:57;;;;;;;4.28;3.40;;;5.30;99.90;;;;;;5039543;28;20908;-70
2022/12/20 12:34:41;;;;;;;7.30;4.85;;;5.20;99.90;;;;;;5045350;28;20644;-69
2022/12/20 12:37:34;;;;;;;5.27;3.80;;;5.10;99.90;;;;;;5040787;28;20442;-70
2022/12/20 12:40:22;;;;;;;9.90;3.37;;;5.00;99.90;;;;;;5045529;28;20436;-70
2022/12/20 12:42:55;;;;;;;5.77;4.07;;;4.90;99.90;;;;;;5021778;28;20450;-71
2022/12/20 12:45:27;;;;;;;4.70;4.15;;;4.80;99.90;;;;;;5046802;28;20433;-70
2022/12/20 12:48:00;;;;;;;10.02;3.90;;;4.80;99.90;;;;;;5045554;28;20996;-69
2022/12/20 12:50:31;;;;;;;4.82;4.13;;;4.80;99.90;;;;;;5045171;28;20431;-69
2022/12/20 12:53:07;;;;;;;6.45;4.13;;;4.90;99.90;;;;;;5044482;28;20436;-69
2022/12/20 12:55:54;;;;;;;6.10;3.73;;;5.10;99.90;;;;;;5043749;28;20434;-69
2022/12/20 12:58:41;;;;;;;7.45;4.90;;;5.20;99.90;;;;;;5041918;28;20436;-70
2022/12/20 13:01:46;;;;;;;6.65;4.10;;;5.30;99.90;;;;;;5046660;28;20441;-69
2022/12/20 13:04:18;;;;;;;5.30;4.20;;;5.50;99.90;;;;;;5039831;28;20530;-70
2022/12/20 13:06:57;;;;;;;7.60;3.97;;;5.50;99.90;;;;;;5048375;28;20435;-69
2022/12/20 13:09:24;;;;;;;5.63;3.22;;;5.50;99.90;;;;;;5019244;28;20508;-70
2022/12/20 13:11:56;;;;;;;8.57;3.15;;;5.40;99.90;;;;;;5047448;28;20518;-70
2022/12/20 13:14:31;;;;;;;5.85;4.13;;;5.50;99.90;;;;;;5042457;28;20548;-70
2022/12/20 13:17:03;;;;;;;7.00;4.05;;;5.60;99.90;;;;;;5047811;28;20427;-69
2022/12/20 13:19:52;;;;;;;7.97;3.95;;;5.70;99.90;;;;;;5044586;28;20425;-70
2022/12/20 13:22:23;;;;;;;6.70;3.65;;;5.70;99.90;;;;;;5047946;28;20431;-69
2022/12/20 13:24:59;;;;;;;11.05;5.05;;;5.80;99.90;;;;;;5026912;28;20440;-69
2022/12/20 13:27:30;;;;;;;10.05;4.60;;;5.80;99.90;;;;;;5039843;28;20520;-69
2022/12/20 13:30:17;;;;;;;6.33;3.90;;;5.80;99.90;;;;;;5033204;28;20431;-70
2022/12/20 13:32:47;;;;;;;8.10;5.22;;;6.00;99.90;;;;;;5034802;28;20436;-69